Avondale, Kentucky
Current Conditions -  °F | °C
As of 10:53 PM on Friday 24 Oct 2014 (Local Time) from KPAH Reporting Station
Clear Clear  
Wind Chill: 52°   Ceiling: Unl
Heat Index: 52°   Visibility: 7mi
Dew Point: 49°   Wind: 5mph
Humidity: 89%   Direction: 230°SW
Pressure: 30.06"   Gusts: NA
Location:  37.0331°N, 88.716°W
Report Text: KPAH 250353Z 23004KT 7SM CLR 11/09 A3006 RMK AO2 SLP180 T01110094
Loading
Personal Weather Stations






























Interactive Weather Map New forecast layout! Learn more

10-Day Weather Forecast

Advertisements
Track Severe Weather on mobile